Time;durP1;ratioP1;P1;durP2;ratioP2;P2;SDS_P1;SDS_P2;PMS_P1;PMS_P2;Temp;Humidity;BMP_temperature;BMP_pressure;BME280_temperature;BME280_humidity;BME280_pressure;Samples;Min_cycle;Max_cycle;Signal;HPM_P1;HPM_P2
2023/05/15 00:02:01;;;;;;;;;;;16.40;41.80;;;;;;21094017;28;19924;-54
2023/05/15 00:12:02;;;;;;;;;;;16.30;41.70;;;;;;21093289;28;19978;-53
2023/05/15 00:22:02;;;;;;;;;;;16.20;41.70;;;;;;21091460;28;19931;-54
2023/05/15 00:32:03;;;;;;;;;;;16.20;40.90;;;;;;21092012;28;20364;-54
2023/05/15 00:42:05;;;;;;;;;;;16.20;41.20;;;;;;21089639;28;19924;-54
2023/05/15 00:52:07;;;;;;;;;;;15.90;41.80;;;;;;21090260;28;19931;-53
2023/05/15 01:02:08;;;;;;;;;;;15.90;42.20;;;;;;21088123;28;19924;-54
2023/05/15 01:12:09;;;;;;;;;;;15.80;42.60;;;;;;21088418;28;19935;-53
2023/05/15 01:22:09;;;;;;;;;;;15.90;42.10;;;;;;21086300;28;20003;-54
2023/05/15 01:32:23;;;;;;;;;;;15.70;42.40;;;;;;21085834;28;20374;-53
2023/05/15 01:42:26;;;;;;;;;;;15.50;42.90;;;;;;21086505;28;19924;-53
2023/05/15 01:52:34;;;;;;;;;;;15.40;43.40;;;;;;21085572;28;19925;-54
2023/05/15 02:02:34;;;;;;;;;;;15.40;43.50;;;;;;21083606;28;20470;-54
2023/05/15 02:12:36;;;;;;;;;;;15.30;43.60;;;;;;21083177;28;19924;-54
2023/05/15 02:22:36;;;;;;;;;;;15.20;44.00;;;;;;21081104;28;19924;-54
2023/05/15 02:32:46;;;;;;;;;;;15.10;44.30;;;;;;21080635;28;19982;-54
2023/05/15 02:42:46;;;;;;;;;;;15.00;44.50;;;;;;21081550;28;19932;-53
2023/05/15 02:52:47;;;;;;;;;;;14.90;44.60;;;;;;21079598;28;19925;-53
2023/05/15 03:02:48;;;;;;;;;;;14.80;44.90;;;;;;21080334;28;20461;-53
2023/05/15 03:12:48;;;;;;;;;;;14.80;45.00;;;;;;21078516;28;19924;-53
2023/05/15 03:22:49;;;;;;;;;;;14.70;45.20;;;;;;21078658;28;19924;-55
2023/05/15 03:32:49;;;;;;;;;;;14.80;45.30;;;;;;21079973;28;19924;-53
2023/05/15 03:42:52;;;;;;;;;;;14.70;45.30;;;;;;21079570;28;19928;-52
2023/05/15 03:52:53;;;;;;;;;;;14.60;45.30;;;;;;21079423;28;20331;-54
2023/05/15 04:02:53;;;;;;;;;;;14.60;45.60;;;;;;21078500;28;19925;-54
2023/05/15 04:12:54;;;;;;;;;;;14.50;45.80;;;;;;21077929;28;20019;-54
2023/05/15 04:22:54;;;;;;;;;;;14.40;47.00;;;;;;21077394;28;19924;-53
2023/05/15 04:32:55;;;;;;;;;;;14.20;47.70;;;;;;21077125;28;19924;-54
2023/05/15 04:42:56;;;;;;;;;;;13.80;48.90;;;;;;21091786;28;19930;-54
2023/05/15 04:52:56;;;;;;;;;;;13.70;50.00;;;;;;21091529;28;19927;-54
2023/05/15 05:02:57;;;;;;;;;;;13.50;50.40;;;;;;21089553;28;19924;-53
2023/05/15 05:12:58;;;;;;;;;;;13.20;51.20;;;;;;21088188;28;20001;-53
2023/05/15 05:22:58;;;;;;;;;;;13.30;51.60;;;;;;21087744;28;20007;-54
2023/05/15 05:32:59;;;;;;;;;;;13.20;52.00;;;;;;21088339;28;19924;-53
2023/05/15 05:43:00;;;;;;;;;;;13.20;52.10;;;;;;21087706;28;19931;-53
2023/05/15 05:53:01;;;;;;;;;;;13.20;52.60;;;;;;21085006;28;19955;-54
2023/05/15 06:03:01;;;;;;;;;;;13.30;52.20;;;;;;21084691;28;19924;-53
2023/05/15 06:13:02;;;;;;;;;;;13.50;51.90;;;;;;21085207;28;20373;-55
2023/05/15 06:23:03;;;;;;;;;;;13.50;52.30;;;;;;21084143;28;19981;-54
2023/05/15 06:33:03;;;;;;;;;;;13.70;52.10;;;;;;21081151;28;19979;-54
2023/05/15 06:43:04;;;;;;;;;;;14.10;50.80;;;;;;21082460;28;19932;-53
2023/05/15 06:53:04;;;;;;;;;;;14.80;47.40;;;;;;21082139;28;19931;-54
2023/05/15 07:03:05;;;;;;;;;;;15.60;45.20;;;;;;21080423;28;19977;-53
2023/05/15 07:13:06;;;;;;;;;;;16.20;43.60;;;;;;21080860;28;19979;-54
2023/05/15 07:23:06;;;;;;;;;;;16.60;42.20;;;;;;21079002;28;19993;-54
2023/05/15 07:33:07;;;;;;;;;;;17.30;40.90;;;;;;21079259;28;20061;-53
2023/05/15 07:43:08;;;;;;;;;;;17.90;39.50;;;;;;21078975;28;19924;-53
2023/05/15 07:53:08;;;;;;;;;;;18.30;38.40;;;;;;21078752;28;19924;-53
2023/05/15 08:03:09;;;;;;;;;;;17.90;39.10;;;;;;21076640;28;20016;-57
2023/05/15 08:13:10;;;;;;;;;;;17.40;40.10;;;;;;21076627;28;19928;-57
2023/05/15 08:23:10;;;;;;;;;;;18.70;43.60;;;;;;21016472;28;20345;-56
2023/05/15 08:33:11;;;;;;;;;;;20.10;38.50;;;;;;21006634;28;20023;-56
2023/05/15 08:43:14;;;;;;;;;;;20.20;37.90;;;;;;21035013;28;20437;-56
2023/05/15 08:53:15;;;;;;;;;;;20.20;37.50;;;;;;21089532;28;19924;-57
2023/05/15 09:03:17;;;;;;;;;;;20.10;35.20;;;;;;21081073;28;19931;-57
2023/05/15 09:13:17;;;;;;;;;;;19.40;37.40;;;;;;21076341;28;20431;-58
2023/05/15 09:23:23;;;;;;;;;;;19.90;36.30;;;;;;21017190;28;19924;-58
2023/05/15 09:33:29;;;;;;;;;;;19.70;36.00;;;;;;21002402;28;20151;-58
2023/05/15 09:43:36;;;;;;;;;;;19.60;36.30;;;;;;21003668;28;19975;-57
2023/05/15 09:53:37;;;;;;;;;;;19.80;35.90;;;;;;21002419;28;20019;-63
2023/05/15 10:03:41;;;;;;;;;;;20.20;37.30;;;;;;21000994;28;19925;-59
2023/05/15 10:13:41;;;;;;;;;;;20.20;34.90;;;;;;20999361;28;20324;-59
2023/05/15 10:23:42;;;;;;;;;;;20.10;34.20;;;;;;21001065;28;19974;-58
2023/05/15 10:33:43;;;;;;;;;;;20.30;33.70;;;;;;20997945;28;19928;-57
2023/05/15 10:43:44;;;;;;;;;;;20.40;33.00;;;;;;20998136;28;19925;-59
2023/05/15 10:53:45;;;;;;;;;;;20.70;32.70;;;;;;20997213;28;19982;-58
2023/05/15 11:03:45;;;;;;;;;;;20.80;32.70;;;;;;20995734;28;19944;-59
2023/05/15 11:14:05;;;;;;;;;;;20.80;31.30;;;;;;20995362;28;19924;-57
2023/05/15 11:24:05;;;;;;;;;;;20.80;29.80;;;;;;21132510;28;19930;-59
2023/05/15 11:34:06;;;;;;;;;;;20.60;28.90;;;;;;21163472;28;19974;-58
2023/05/15 11:44:07;;;;;;;;;;;20.60;30.10;;;;;;21161001;28;19966;-58
2023/05/15 11:54:10;;;;;;;;;;;20.80;29.00;;;;;;21162916;28;20274;-58
2023/05/15 12:04:14;;;;;;;;;;;20.70;28.90;;;;;;21161890;28;20012;-61
2023/05/15 12:14:15;;;;;;;;;;;20.90;28.20;;;;;;21155309;28;20410;-60
2023/05/15 12:24:18;;;;;;;;;;;21.40;30.70;;;;;;21232999;28;19924;-57
2023/05/15 12:34:19;;;;;;;;;;;21.60;30.00;;;;;;21230947;28;19927;-57
2023/05/15 12:44:20;;;;;;;;;;;21.70;29.40;;;;;;21240596;28;20379;-61
2023/05/15 12:54:22;;;;;;;;;;;21.80;28.80;;;;;;21245642;27;20020;-61
2023/05/15 13:04:23;;;;;;;;;;;22.00;27.30;;;;;;21259132;27;20387;-57
2023/05/15 13:14:27;;;;;;;;;;;22.20;27.40;;;;;;21258693;27;19946;-57
2023/05/15 13:24:27;;;;;;;;;;;22.10;26.50;;;;;;21256764;27;19924;-57
2023/05/15 13:34:28;;;;;;;;;;;22.20;25.40;;;;;;21257708;27;19924;-56
2023/05/15 13:44:29;;;;;;;;;;;22.10;25.80;;;;;;21257152;27;20393;-56
2023/05/15 13:54:30;;;;;;;;;;;22.20;26.90;;;;;;21254428;27;20377;-58
2023/05/15 14:04:30;;;;;;;;;;;22.60;26.40;;;;;;21254974;27;19924;-57
2023/05/15 14:14:31;;;;;;;;;;;22.70;25.70;;;;;;21253712;27;19975;-57
2023/05/15 14:24:32;;;;;;;;;;;22.60;25.80;;;;;;21254244;27;19924;-57
2023/05/15 14:34:32;;;;;;;;;;;22.40;26.80;;;;;;21253265;27;19976;-60
2023/05/15 14:44:33;;;;;;;;;;;22.30;27.20;;;;;;21250955;27;19927;-58
2023/05/15 14:54:37;;;;;;;;;;;22.10;27.60;;;;;;21251533;27;19931;-59
2023/05/15 15:04:37;;;;;;;;;;;22.30;27.70;;;;;;21250430;27;19984;-57
2023/05/15 15:14:38;;;;;;;;;;;21.90;28.00;;;;;;21250093;27;20006;-58
2023/05/15 15:24:39;;;;;;;;;;;21.80;28.00;;;;;;21246910;27;20388;-58
2023/05/15 15:34:39;;;;;;;;;;;21.60;28.10;;;;;;21248553;27;19985;-57
2023/05/15 15:44:40;;;;;;;;;;;21.30;28.00;;;;;;21248358;27;20006;-57
2023/05/15 15:54:45;;;;;;;;;;;21.30;28.50;;;;;;21247290;28;19947;-59
2023/05/15 16:04:46;;;;;;;;;;;21.20;29.30;;;;;;21245696;28;20019;-57
2023/05/15 16:14:47;;;;;;;;;;;21.20;29.50;;;;;;21247295;28;20372;-57
2023/05/15 16:24:47;;;;;;;;;;;21.20;29.90;;;;;;21245710;28;19924;-57
2023/05/15 16:34:48;;;;;;;;;;;21.00;30.70;;;;;;21256259;27;19974;-56
2023/05/15 16:44:48;;;;;;;;;;;20.70;31.20;;;;;;21262849;27;19924;-56
2023/05/15 16:54:49;;;;;;;;;;;20.70;32.00;;;;;;21261255;27;19974;-57
2023/05/15 17:04:50;;;;;;;;;;;20.50;32.30;;;;;;21261508;27;20410;-59
2023/05/15 17:14:50;;;;;;;;;;;20.40;32.70;;;;;;21254052;27;19969;-56
2023/05/15 17:24:51;;;;;;;;;;;20.50;32.20;;;;;;21255294;27;20393;-57
2023/05/15 17:34:51;;;;;;;;;;;20.70;32.40;;;;;;21258844;27;19924;-57
2023/05/15 17:44:53;;;;;;;;;;;20.50;32.80;;;;;;21255629;27;19963;-56
2023/05/15 17:54:53;;;;;;;;;;;20.30;33.50;;;;;;21256651;27;19981;-56
2023/05/15 18:04:55;;;;;;;;;;;20.20;33.60;;;;;;21255857;27;19923;-56
2023/05/15 18:14:56;;;;;;;;;;;20.10;33.60;;;;;;21255149;27;19930;-58
2023/05/15 18:24:56;;;;;;;;;;;20.10;33.90;;;;;;21252977;27;19924;-59
2023/05/15 18:34:57;;;;;;;;;;;19.80;34.20;;;;;;21254274;27;19940;-57
2023/05/15 18:44:58;;;;;;;;;;;19.80;34.60;;;;;;21252669;27;19946;-58
2023/05/15 18:55:00;;;;;;;;;;;19.60;35.20;;;;;;21251308;27;19923;-57
2023/05/15 19:05:00;;;;;;;;;;;19.50;35.90;;;;;;21250463;27;19942;-58
2023/05/15 19:15:01;;;;;;;;;;;19.20;36.40;;;;;;21250574;27;19963;-58
2023/05/15 19:25:02;;;;;;;;;;;19.10;36.60;;;;;;21248509;27;19966;-57
2023/05/15 19:35:03;;;;;;;;;;;18.70;37.20;;;;;;21248794;27;20295;-57
2023/05/15 19:45:03;;;;;;;;;;;18.50;37.50;;;;;;21248214;27;19974;-56
2023/05/15 19:55:04;;;;;;;;;;;18.40;38.00;;;;;;21248244;28;19923;-57
2023/05/15 20:05:06;;;;;;;;;;;18.30;38.50;;;;;;21247704;27;20372;-58
2023/05/15 20:15:07;;;;;;;;;;;18.20;38.90;;;;;;21264489;27;20364;-58
2023/05/15 20:25:08;;;;;;;;;;;18.00;39.40;;;;;;21262539;27;19998;-57
2023/05/15 20:35:10;;;;;;;;;;;17.80;39.80;;;;;;21262770;27;19923;-59
2023/05/15 20:45:10;;;;;;;;;;;17.80;39.70;;;;;;21262696;27;19962;-59
2023/05/15 20:55:15;;;;;;;;;;;17.80;39.90;;;;;;21261415;27;19988;-57
2023/05/15 21:05:15;;;;;;;;;;;17.60;40.60;;;;;;21260803;27;19944;-57
2023/05/15 21:15:16;;;;;;;;;;;17.50;40.60;;;;;;21258476;27;19988;-57
2023/05/15 21:25:18;;;;;;;;;;;17.50;40.20;;;;;;21256361;27;19946;-57
2023/05/15 21:35:18;;;;;;;;;;;17.20;40.40;;;;;;21257981;27;19923;-59
2023/05/15 21:45:19;;;;;;;;;;;17.20;40.00;;;;;;21258388;27;19923;-57
2023/05/15 21:55:20;;;;;;;;;;;17.00;40.40;;;;;;21256578;27;19963;-58
2023/05/15 22:05:20;;;;;;;;;;;16.90;40.60;;;;;;21255221;27;20015;-56
2023/05/15 22:15:21;;;;;;;;;;;16.80;40.60;;;;;;21254668;27;19978;-57
2023/05/15 22:25:22;;;;;;;;;;;16.70;40.40;;;;;;21252226;27;19924;-57
2023/05/15 22:35:22;;;;;;;;;;;16.70;40.40;;;;;;21251156;27;19924;-58
2023/05/15 22:45:23;;;;;;;;;;;16.30;41.00;;;;;;21252242;27;20411;-57
2023/05/15 22:55:23;;;;;;;;;;;16.20;41.00;;;;;;21251500;27;19934;-56
2023/05/15 23:05:24;;;;;;;;;;;16.20;41.00;;;;;;21249867;27;19927;-57
2023/05/15 23:15:25;;;;;;;;;;;16.20;41.00;;;;;;21248784;27;20372;-56
2023/05/15 23:25:25;;;;;;;;;;;16.10;41.70;;;;;;21247967;27;19923;-56
2023/05/15 23:35:26;;;;;;;;;;;15.80;42.60;;;;;;21248646;27;20384;-57
2023/05/15 23:45:27;;;;;;;;;;;15.70;43.00;;;;;;21247652;27;19930;-57
2023/05/15 23:55:28;;;;;;;;;;;15.70;42.70;;;;;;21247874;28;19971;-57
